sensor_id;sensor_type;location;lat;lon;timestamp;P1;P2;P0
53698;PMS7003;68408;53.952;27.612;2023-03-18T00:03:37;1;0.6;0.4
53698;PMS7003;68408;53.952;27.612;2023-03-18T00:08:35;1;0.6;0.4
53698;PMS7003;68408;53.952;27.612;2023-03-18T00:13:49;1.5;0.6;0.6
53698;PMS7003;68408;53.952;27.612;2023-03-18T00:19:21;1.4;0.8;0.6
53698;PMS7003;68408;53.952;27.612;2023-03-18T00:23:49;2;0.9;0.8
53698;PMS7003;68408;53.952;27.612;2023-03-18T00:29:17;1.9;0.7;0.5
53698;PMS7003;68408;53.952;27.612;2023-03-18T00:34:13;1.5;0.8;0.6
53698;PMS7003;68408;53.952;27.612;2023-03-18T00:38:52;1.3;0.9;0.7
53698;PMS7003;68408;53.952;27.612;2023-03-18T00:43:54;2.2;1;0.7
53698;PMS7003;68408;53.952;27.612;2023-03-18T00:48:56;2.2;1;0.5
53698;PMS7003;68408;53.952;27.612;2023-03-18T00:54:08;2.7;1.5;0.6
53698;PMS7003;68408;53.952;27.612;2023-03-18T00:59:07;2.6;1.1;0.6
53698;PMS7003;68408;53.952;27.612;2023-03-18T01:03:29;1.2;0.8;0.6
53698;PMS7003;68408;53.952;27.612;2023-03-18T01:09:21;1.5;0.9;0.7
53698;PMS7003;68408;53.952;27.612;2023-03-18T01:14:07;1.3;0.7;0.5
53698;PMS7003;68408;53.952;27.612;2023-03-18T01:19:07;1.5;0.6;0.4
53698;PMS7003;68408;53.952;27.612;2023-03-18T01:23:29;1.9;1;0.7
53698;PMS7003;68408;53.952;27.612;2023-03-18T01:29:19;5.8;1.6;1
53698;PMS7003;68408;53.952;27.612;2023-03-18T01:33:51;2.3;0.7;0.4
53698;PMS7003;68408;53.952;27.612;2023-03-18T01:38:43;2.2;0.9;0.5
53698;PMS7003;68408;53.952;27.612;2023-03-18T01:44:05;1.5;0.7;0.5
53698;PMS7003;68408;53.952;27.612;2023-03-18T01:48:53;1;0.7;0.6
53698;PMS7003;68408;53.952;27.612;2023-03-18T01:53:56;1.8;0.9;0.7
53698;PMS7003;68408;53.952;27.612;2023-03-18T01:58:50;2.1;0.7;0.4
53698;PMS7003;68408;53.952;27.612;2023-03-18T02:03:29;2;1.1;0.7
53698;PMS7003;68408;53.952;27.612;2023-03-18T02:09:07;1.9;0.9;0.7
53698;PMS7003;68408;53.952;27.612;2023-03-18T02:14:23;1.7;1.2;0.8
53698;PMS7003;68408;53.952;27.612;2023-03-18T02:18:32;1.6;0.9;0.7
53698;PMS7003;68408;53.952;27.612;2023-03-18T02:24:08;1.8;0.9;0.7
53698;PMS7003;68408;53.952;27.612;2023-03-18T02:29:05;2;1;0.8
53698;PMS7003;68408;53.952;27.612;2023-03-18T02:34:20;1.8;0.9;0.8
53698;PMS7003;68408;53.952;27.612;2023-03-18T02:38:41;2.4;1.1;0.8
53698;PMS7003;68408;53.952;27.612;2023-03-18T02:44:00;2.4;1.5;1.1
53698;PMS7003;68408;53.952;27.612;2023-03-18T02:49:20;2.2;1.3;1
53698;PMS7003;68408;53.952;27.612;2023-03-18T02:54:20;2.4;1.5;0.9
53698;PMS7003;68408;53.952;27.612;2023-03-18T02:58:35;2.6;1.8;1.2
53698;PMS7003;68408;53.952;27.612;2023-03-18T03:04:22;2.5;1.6;1.3
53698;PMS7003;68408;53.952;27.612;2023-03-18T03:09:08;3.4;2.1;1.3
53698;PMS7003;68408;53.952;27.612;2023-03-18T03:13:29;3.5;2.7;2
53698;PMS7003;68408;53.952;27.612;2023-03-18T03:18:49;3.4;2.4;1.7
53698;PMS7003;68408;53.952;27.612;2023-03-18T03:24:21;3.6;2.4;1.8
53698;PMS7003;68408;53.952;27.612;2023-03-18T03:28:29;2.2;1.6;1.2
53698;PMS7003;68408;53.952;27.612;2023-03-18T03:34:19;3.2;2.1;1.6
53698;PMS7003;68408;53.952;27.612;2023-03-18T03:39:21;2.4;1.9;1.4
53698;PMS7003;68408;53.952;27.612;2023-03-18T03:43:29;3.2;1.7;1.4
53698;PMS7003;68408;53.952;27.612;2023-03-18T03:49:07;1.8;1.4;1
53698;PMS7003;68408;53.952;27.612;2023-03-18T03:53:39;2.6;1.5;1.2
53698;PMS7003;68408;53.952;27.612;2023-03-18T03:59:03;3.5;2.2;1.6
53698;PMS7003;68408;53.952;27.612;2023-03-18T04:04:07;2.6;1.9;1.5
53698;PMS7003;68408;53.952;27.612;2023-03-18T04:08:49;2.4;1.8;1.4
53698;PMS7003;68408;53.952;27.612;2023-03-18T04:14:21;2.6;1.6;1.2
53698;PMS7003;68408;53.952;27.612;2023-03-18T04:19:07;2.3;1.9;1.5
53698;PMS7003;68408;53.952;27.612;2023-03-18T04:23:41;2.9;2;1.4
53698;PMS7003;68408;53.952;27.612;2023-03-18T04:28:37;3.3;2;1.3
53698;PMS7003;68408;53.952;27.612;2023-03-18T04:34:21;2.4;1.6;1.3
53698;PMS7003;68408;53.952;27.612;2023-03-18T04:38:37;1.9;1.2;0.8
53698;PMS7003;68408;53.952;27.612;2023-03-18T04:44:04;3.7;1.6;1
53698;PMS7003;68408;53.952;27.612;2023-03-18T04:49:03;3.1;1.8;1.5
53698;PMS7003;68408;53.952;27.612;2023-03-18T04:53:37;2;1.5;1.2
53698;PMS7003;68408;53.952;27.612;2023-03-18T04:59:07;3.3;1.5;1.2
53698;PMS7003;68408;53.952;27.612;2023-03-18T05:03:49;3.1;2;1.4
53698;PMS7003;68408;53.952;27.612;2023-03-18T05:08:37;3.6;1.8;1.4
53698;PMS7003;68408;53.952;27.612;2023-03-18T05:14:07;5.2;3.6;2.6
53698;PMS7003;68408;53.952;27.612;2023-03-18T05:19:19;5.5;4.8;3.7
53698;PMS7003;68408;53.952;27.612;2023-03-18T05:23:29;3.3;2.3;1.9
53698;PMS7003;68408;53.952;27.612;2023-03-18T05:28:59;5.1;3.9;2.6
53698;PMS7003;68408;53.952;27.612;2023-03-18T05:34:06;3.8;2.5;2.1
53698;PMS7003;68408;53.952;27.612;2023-03-18T05:38:59;2.9;1.9;1.5
53698;PMS7003;68408;53.952;27.612;2023-03-18T05:43:47;3.3;2.5;1.7
53698;PMS7003;68408;53.952;27.612;2023-03-18T05:48:59;2.1;1.4;1
53698;PMS7003;68408;53.952;27.612;2023-03-18T05:54:18;4.2;3.1;2.2
53698;PMS7003;68408;53.952;27.612;2023-03-18T05:59:17;5.9;4.5;3.4
53698;PMS7003;68408;53.952;27.612;2023-03-18T06:03:29;4.4;3.1;2.4
53698;PMS7003;68408;53.952;27.612;2023-03-18T06:09:03;3.6;2.4;1.7
53698;PMS7003;68408;53.952;27.612;2023-03-18T06:13:43;2.8;2;1.6
53698;PMS7003;68408;53.952;27.612;2023-03-18T06:18:29;2.8;1.5;1.3
53698;PMS7003;68408;53.952;27.612;2023-03-18T06:24:15;2.5;1.7;1.3
53698;PMS7003;68408;53.952;27.612;2023-03-18T06:28:41;2.4;2;1.4
53698;PMS7003;68408;53.952;27.612;2023-03-18T06:33:47;4.9;3.3;2.6
53698;PMS7003;68408;53.952;27.612;2023-03-18T06:38:59;4.2;2.8;2.3
53698;PMS7003;68408;53.952;27.612;2023-03-18T06:44:17;5.3;4;3.1
53698;PMS7003;68408;53.952;27.612;2023-03-18T06:48:29;4.1;2.5;2.1
53698;PMS7003;68408;53.952;27.612;2023-03-18T06:53:51;2.8;2;1.5
53698;PMS7003;68408;53.952;27.612;2023-03-18T06:59:07;4.2;2.6;1.8
53698;PMS7003;68408;53.952;27.612;2023-03-18T07:03:29;2.5;1.8;1.3
53698;PMS7003;68408;53.952;27.612;2023-03-18T07:09:06;2.9;1.7;1.4
53698;PMS7003;68408;53.952;27.612;2023-03-18T07:13:57;3.6;2.1;1.5
53698;PMS7003;68408;53.952;27.612;2023-03-18T07:18:37;2.8;1.8;1.3
53698;PMS7003;68408;53.952;27.612;2023-03-18T07:24:01;3.1;1.9;1.6
53698;PMS7003;68408;53.952;27.612;2023-03-18T07:29:15;3.9;2.4;2.1
53698;PMS7003;68408;53.952;27.612;2023-03-18T07:33:43;3.6;2.3;1.9
53698;PMS7003;68408;53.952;27.612;2023-03-18T07:39:17;3.4;2.1;1.7
53698;PMS7003;68408;53.952;27.612;2023-03-18T07:43:51;4.1;2.4;2
53698;PMS7003;68408;53.952;27.612;2023-03-18T07:49:01;6.7;4.9;4
53698;PMS7003;68408;53.952;27.612;2023-03-18T07:53:59;4.4;3.1;2.5
53698;PMS7003;68408;53.952;27.612;2023-03-18T07:58:51;4.2;3.3;2.5
53698;PMS7003;68408;53.952;27.612;2023-03-18T08:04:03;3.6;2.6;1.9
53698;PMS7003;68408;53.952;27.612;2023-03-18T08:08:41;3.6;2.5;2.1
53698;PMS7003;68408;53.952;27.612;2023-03-18T08:13:29;3.7;2.9;2.3
53698;PMS7003;68408;53.952;27.612;2023-03-18T08:19:05;3.3;2.8;2.2
53698;PMS7003;68408;53.952;27.612;2023-03-18T08:24:17;3.5;2.5;2
53698;PMS7003;68408;53.952;27.612;2023-03-18T08:28:29;3.8;2.8;2.2
53698;PMS7003;68408;53.952;27.612;2023-03-18T08:34:05;4.4;3;2.4
53698;PMS7003;68408;53.952;27.612;2023-03-18T08:39:08;3.3;2.3;2
53698;PMS7003;68408;53.952;27.612;2023-03-18T08:44:02;4.9;3.3;2.6
53698;PMS7003;68408;53.952;27.612;2023-03-18T08:48:45;3.3;2.8;2.4
53698;PMS7003;68408;53.952;27.612;2023-03-18T08:54:01;3.4;2.9;2.5
53698;PMS7003;68408;53.952;27.612;2023-03-18T08:59:19;4.9;3.2;2.7
53698;PMS7003;68408;53.952;27.612;2023-03-18T09:04:19;4.4;3.7;3
53698;PMS7003;68408;53.952;27.612;2023-03-18T09:08:29;4.3;3.3;2.7
53698;PMS7003;68408;53.952;27.612;2023-03-18T09:14:19;3.5;2.3;1.6
53698;PMS7003;68408;53.952;27.612;2023-03-18T09:19:07;4.6;3.3;2.7
53698;PMS7003;68408;53.952;27.612;2023-03-18T09:23:49;5;3.3;2.4
53698;PMS7003;68408;53.952;27.612;2023-03-18T09:28:47;5.2;4.1;3.1
53698;PMS7003;68408;53.952;27.612;2023-03-18T09:34:17;7.7;6.4;4.5
53698;PMS7003;68408;53.952;27.612;2023-03-18T09:38:29;5.6;4.4;3.5
53698;PMS7003;68408;53.952;27.612;2023-03-18T09:44:02;6.6;4.1;2.8
53698;PMS7003;68408;53.952;27.612;2023-03-18T09:49:53;4.4;3;2.6
53698;PMS7003;68408;53.952;27.612;2023-03-18T09:53:30;5.5;4.4;3.4
53698;PMS7003;68408;53.952;27.612;2023-03-18T09:58:53;5;3.3;2.7
53698;PMS7003;68408;53.952;27.612;2023-03-18T10:03:48;6;4.2;3.4
53698;PMS7003;68408;53.952;27.612;2023-03-18T10:09:17;4.4;2.9;2.3
53698;PMS7003;68408;53.952;27.612;2023-03-18T10:14:21;4;2.5;2.1
53698;PMS7003;68408;53.952;27.612;2023-03-18T10:18:36;4.9;3.3;2.6
53698;PMS7003;68408;53.952;27.612;2023-03-18T10:23:37;5.7;3.1;2.4
53698;PMS7003;68408;53.952;27.612;2023-03-18T10:28:58;4.8;3.1;2.6
53698;PMS7003;68408;53.952;27.612;2023-03-18T10:34:18;4.4;3.4;3
53698;PMS7003;68408;53.952;27.612;2023-03-18T10:38:48;4.6;3.1;2.6
53698;PMS7003;68408;53.952;27.612;2023-03-18T10:43:52;4.6;3.3;2.8
53698;PMS7003;68408;53.952;27.612;2023-03-18T10:49:07;5;3.7;2.8
53698;PMS7003;68408;53.952;27.612;2023-03-18T10:54:21;5;3.6;2.9
53698;PMS7003;68408;53.952;27.612;2023-03-18T10:58:45;5.2;3;2.4
53698;PMS7003;68408;53.952;27.612;2023-03-18T11:03:48;4.6;3.2;2.7
53698;PMS7003;68408;53.952;27.612;2023-03-18T11:09:20;4.6;3.4;2.9
53698;PMS7003;68408;53.952;27.612;2023-03-18T11:13:48;4.2;3.3;2.7
53698;PMS7003;68408;53.952;27.612;2023-03-18T11:18:29;3.4;2.9;2.5
53698;PMS7003;68408;53.952;27.612;2023-03-18T11:23:48;4.5;2.9;2.5
53698;PMS7003;68408;53.952;27.612;2023-03-18T11:29:20;4;3.3;2.8
53698;PMS7003;68408;53.952;27.612;2023-03-18T11:34:06;4.5;3.1;2.5
53698;PMS7003;68408;53.952;27.612;2023-03-18T11:39:21;4.8;3.3;2.7
53698;PMS7003;68408;53.952;27.612;2023-03-18T11:44:23;3.7;2.7;2.3
53698;PMS7003;68408;53.952;27.612;2023-03-18T11:49:01;3.5;2.6;2.3
53698;PMS7003;68408;53.952;27.612;2023-03-18T11:53:55;3.2;2.6;2.1
53698;PMS7003;68408;53.952;27.612;2023-03-18T11:59:04;4.8;3.1;2.7
53698;PMS7003;68408;53.952;27.612;2023-03-18T12:04:54;3.5;2.5;2.1
53698;PMS7003;68408;53.952;27.612;2023-03-18T12:09:20;3.7;2.7;2.2
53698;PMS7003;68408;53.952;27.612;2023-03-18T12:13:37;3.8;2.9;2.5
53698;PMS7003;68408;53.952;27.612;2023-03-18T12:19:29;3.4;2.5;2.1
53698;PMS7003;68408;53.952;27.612;2023-03-18T12:24:03;6.4;5.4;3.6
53698;PMS7003;68408;53.952;27.612;2023-03-18T12:28:31;5.4;4;3.1
53698;PMS7003;68408;53.952;27.612;2023-03-18T12:33:50;3.8;2.8;2.2
53698;PMS7003;68408;53.952;27.612;2023-03-18T12:39:33;3.1;2.7;2.1
53698;PMS7003;68408;53.952;27.612;2023-03-18T12:43:39;4.3;2.7;2.2
53698;PMS7003;68408;53.952;27.612;2023-03-18T12:49:02;4.4;2.4;2
53698;PMS7003;68408;53.952;27.612;2023-03-18T12:54:19;3.7;2.2;1.6
53698;PMS7003;68408;53.952;27.612;2023-03-18T12:58:41;3.6;2.6;2.3
53698;PMS7003;68408;53.952;27.612;2023-03-18T13:03:36;4.4;3.2;2.6
53698;PMS7003;68408;53.952;27.612;2023-03-18T13:09:22;4.8;3.2;2.7
53698;PMS7003;68408;53.952;27.612;2023-03-18T13:13:49;3.1;2.2;1.9
53698;PMS7003;68408;53.952;27.612;2023-03-18T13:18:40;3.9;2.6;2.1
53698;PMS7003;68408;53.952;27.612;2023-03-18T13:24:18;3.8;2.5;2
53698;PMS7003;68408;53.952;27.612;2023-03-18T13:29:21;3;2.3;1.7
53698;PMS7003;68408;53.952;27.612;2023-03-18T13:34:00;3;1.8;1.6
53698;PMS7003;68408;53.952;27.612;2023-03-18T13:39:18;1.8;1.6;1.3
53698;PMS7003;68408;53.952;27.612;2023-03-18T13:44:20;3.4;1.6;1.4
53698;PMS7003;68408;53.952;27.612;2023-03-18T13:48:30;1.9;1.5;1
53698;PMS7003;68408;53.952;27.612;2023-03-18T13:53:52;2.8;1.9;1.5
53698;PMS7003;68408;53.952;27.612;2023-03-18T13:59:02;2.7;1.6;1.3
53698;PMS7003;68408;53.952;27.612;2023-03-18T14:03:58;2.2;1.4;1.2
53698;PMS7003;68408;53.952;27.612;2023-03-18T14:09:20;1.8;1.5;1.1
53698;PMS7003;68408;53.952;27.612;2023-03-18T14:13:30;2.1;1.5;1.2
53698;PMS7003;68408;53.952;27.612;2023-03-18T14:19:20;2.2;1.6;1.3
53698;PMS7003;68408;53.952;27.612;2023-03-18T14:24:08;2.6;1.8;1.5
53698;PMS7003;68408;53.952;27.612;2023-03-18T14:28:35;2.3;1.5;1.2
53698;PMS7003;68408;53.952;27.612;2023-03-18T14:34:03;1.9;1.3;1
53698;PMS7003;68408;53.952;27.612;2023-03-18T14:39:21;1.9;1.3;1.2
53698;PMS7003;68408;53.952;27.612;2023-03-18T14:43:36;1.5;1;1
53698;PMS7003;68408;53.952;27.612;2023-03-18T14:49:08;1.8;1.1;0.9
53698;PMS7003;68408;53.952;27.612;2023-03-18T14:54:18;1.9;1.3;1
53698;PMS7003;68408;53.952;27.612;2023-03-18T14:58:36;1.2;0.7;0.5
53698;PMS7003;68408;53.952;27.612;2023-03-18T15:03:52;1.3;0.9;0.8
53698;PMS7003;68408;53.952;27.612;2023-03-18T15:08:49;2.4;1.5;1.3
53698;PMS7003;68408;53.952;27.612;2023-03-18T15:13:30;2.4;1.1;0.9
53698;PMS7003;68408;53.952;27.612;2023-03-18T15:18:50;3;2.4;1.9
53698;PMS7003;68408;53.952;27.612;2023-03-18T15:24:21;2.1;1.3;1.2
53698;PMS7003;68408;53.952;27.612;2023-03-18T15:28:48;4.8;3.7;2.9
53698;PMS7003;68408;53.952;27.612;2023-03-18T15:34:04;2.5;2;1.5
53698;PMS7003;68408;53.952;27.612;2023-03-18T15:39:21;3.1;2.6;2.2
53698;PMS7003;68408;53.952;27.612;2023-03-18T15:43:38;2.7;1.7;1.4
53698;PMS7003;68408;53.952;27.612;2023-03-18T15:48:52;2.5;1.2;1.1
53698;PMS7003;68408;53.952;27.612;2023-03-18T15:53:33;2.2;1.6;1.4
53698;PMS7003;68408;53.952;27.612;2023-03-18T15:59:22;2.6;1.9;1.6
53698;PMS7003;68408;53.952;27.612;2023-03-18T16:03:52;3.1;2.2;1.8
53698;PMS7003;68408;53.952;27.612;2023-03-18T16:08:36;3.3;2;1.6
53698;PMS7003;68408;53.952;27.612;2023-03-18T16:14:18;5.1;3.2;2.3
53698;PMS7003;68408;53.952;27.612;2023-03-18T16:18:42;4.3;2.6;1.8
53698;PMS7003;68408;53.952;27.612;2023-03-18T16:24:06;4.2;2.8;2.2
53698;PMS7003;68408;53.952;27.612;2023-03-18T16:29:04;5;3.4;2.5
53698;PMS7003;68408;53.952;27.612;2023-03-18T16:34:20;5.6;3.8;2.7
53698;PMS7003;68408;53.952;27.612;2023-03-18T16:38:30;5.2;4;3
53698;PMS7003;68408;53.952;27.612;2023-03-18T16:44:20;5.1;3.9;3.1
53698;PMS7003;68408;53.952;27.612;2023-03-18T16:49:20;5.5;3.5;2.8
53698;PMS7003;68408;53.952;27.612;2023-03-18T16:54:08;5.5;3.9;3
53698;PMS7003;68408;53.952;27.612;2023-03-18T16:58:52;7.5;5.9;4.6
53698;PMS7003;68408;53.952;27.612;2023-03-18T17:04:05;5.3;4.4;3.5
53698;PMS7003;68408;53.952;27.612;2023-03-18T17:09:20;6.7;5;3.6
53698;PMS7003;68408;53.952;27.612;2023-03-18T17:13:32;5.3;4.5;3.1
53698;PMS7003;68408;53.952;27.612;2023-03-18T17:18:30;4.2;2.7;2.3
53698;PMS7003;68408;53.952;27.612;2023-03-18T17:24:20;5.4;3.9;3
53698;PMS7003;68408;53.952;27.612;2023-03-18T17:28:58;4.8;3.4;2.7
53698;PMS7003;68408;53.952;27.612;2023-03-18T17:33:36;3.8;2.3;1.8
53698;PMS7003;68408;53.952;27.612;2023-03-18T17:38:30;4.5;3.1;2.5
53698;PMS7003;68408;53.952;27.612;2023-03-18T17:44:21;7.2;5.7;4.2
53698;PMS7003;68408;53.952;27.612;2023-03-18T17:48:46;5.6;4.2;3.3
53698;PMS7003;68408;53.952;27.612;2023-03-18T17:54:02;4.8;4;2.9
53698;PMS7003;68408;53.952;27.612;2023-03-18T17:58:32;4.1;2.9;2.1
53698;PMS7003;68408;53.952;27.612;2023-03-18T18:03:52;4.2;2.9;2.3
53698;PMS7003;68408;53.952;27.612;2023-03-18T18:08:58;4.7;3.1;2.3
53698;PMS7003;68408;53.952;27.612;2023-03-18T18:13:44;4.5;3.1;2.2
53698;PMS7003;68408;53.952;27.612;2023-03-18T18:18:36;4;2.3;1.9
53698;PMS7003;68408;53.952;27.612;2023-03-18T18:24:11;4.5;3.2;2.4
53698;PMS7003;68408;53.952;27.612;2023-03-18T18:29:20;3.6;3;2.2
53698;PMS7003;68408;53.952;27.612;2023-03-18T18:33:37;4;2.4;1.8
53698;PMS7003;68408;53.952;27.612;2023-03-18T18:39:06;3.3;2.2;1.5
53698;PMS7003;68408;53.952;27.612;2023-03-18T18:44:06;3.8;2.3;1.9
53698;PMS7003;68408;53.952;27.612;2023-03-18T18:49:02;3.3;2;1.7
53698;PMS7003;68408;53.952;27.612;2023-03-18T18:53:30;4;2.8;2.4
53698;PMS7003;68408;53.952;27.612;2023-03-18T18:58:44;5.2;3.6;2.8
53698;PMS7003;68408;53.952;27.612;2023-03-18T19:04:18;5.1;3.5;2.5
53698;PMS7003;68408;53.952;27.612;2023-03-18T19:08:52;3.7;2.8;2.1
53698;PMS7003;68408;53.952;27.612;2023-03-18T19:13:36;7.9;5.5;4
53698;PMS7003;68408;53.952;27.612;2023-03-18T19:19:18;3.5;2.4;2
53698;PMS7003;68408;53.952;27.612;2023-03-18T19:23:42;4.7;2.9;2.2
53698;PMS7003;68408;53.952;27.612;2023-03-18T19:28:46;4.2;2.9;2.2
53698;PMS7003;68408;53.952;27.612;2023-03-18T19:33:48;4.9;3.5;2.6
53698;PMS7003;68408;53.952;27.612;2023-03-18T19:39:17;2.9;2.6;2
53698;PMS7003;68408;53.952;27.612;2023-03-18T19:43:36;4.8;2.8;2.1
53698;PMS7003;68408;53.952;27.612;2023-03-18T19:49:18;4.2;2.7;2.1
53698;PMS7003;68408;53.952;27.612;2023-03-18T19:54:20;3.9;2.3;1.8
53698;PMS7003;68408;53.952;27.612;2023-03-18T19:58:36;4;2.4;1.8
53698;PMS7003;68408;53.952;27.612;2023-03-18T20:04:08;4.3;3.3;2.6
53698;PMS7003;68408;53.952;27.612;2023-03-18T20:09:02;5.1;3.5;2.3
53698;PMS7003;68408;53.952;27.612;2023-03-18T20:14:12;4.4;2.8;2.2
53698;PMS7003;68408;53.952;27.612;2023-03-18T20:19:00;5.1;3.9;3.1
53698;PMS7003;68408;53.952;27.612;2023-03-18T20:23:48;5.3;3.6;2.8
53698;PMS7003;68408;53.952;27.612;2023-03-18T20:29:18;5.5;4;2.8
53698;PMS7003;68408;53.952;27.612;2023-03-18T20:34:06;6.5;4.4;3.3
53698;PMS7003;68408;53.952;27.612;2023-03-18T20:38:36;6.2;4.5;3.4
53698;PMS7003;68408;53.952;27.612;2023-03-18T20:44:02;4.3;3.3;2.6
53698;PMS7003;68408;53.952;27.612;2023-03-18T20:49:14;5.3;3.9;2.9
53698;PMS7003;68408;53.952;27.612;2023-03-18T20:53:52;5.5;4.4;3.4
53698;PMS7003;68408;53.952;27.612;2023-03-18T20:58:50;5.7;3.5;2.5
53698;PMS7003;68408;53.952;27.612;2023-03-18T21:03:46;5.2;4;3.1
53698;PMS7003;68408;53.952;27.612;2023-03-18T21:08:36;6.1;3.5;2.6
53698;PMS7003;68408;53.952;27.612;2023-03-18T21:14:04;5.2;3.2;2.5
53698;PMS7003;68408;53.952;27.612;2023-03-18T21:18:48;5.4;4;3.2
53698;PMS7003;68408;53.952;27.612;2023-03-18T21:23:36;4.2;2.9;2.2
53698;PMS7003;68408;53.952;27.612;2023-03-18T21:29:06;5.2;3.7;2.7
53698;PMS7003;68408;53.952;27.612;2023-03-18T21:34:20;5.1;3.6;2.8
53698;PMS7003;68408;53.952;27.612;2023-03-18T21:38:30;4.4;3.3;2.7
53698;PMS7003;68408;53.952;27.612;2023-03-18T21:44:18;3.8;3.2;2.5
53698;PMS7003;68408;53.952;27.612;2023-03-18T21:49:06;4.8;3.5;2.7
53698;PMS7003;68408;53.952;27.612;2023-03-18T21:54:00;4.9;3.4;2.5
53698;PMS7003;68408;53.952;27.612;2023-03-18T21:58:52;3.7;2.3;1.7
53698;PMS7003;68408;53.952;27.612;2023-03-18T22:03:50;4.9;3.4;2.4
53698;PMS7003;68408;53.952;27.612;2023-03-18T22:08:44;3.6;2.3;1.8
53698;PMS7003;68408;53.952;27.612;2023-03-18T22:14:20;5.4;3.7;2.5
53698;PMS7003;68408;53.952;27.612;2023-03-18T22:18:30;4.1;2.8;2.2
53698;PMS7003;68408;53.952;27.612;2023-03-18T22:24:20;3.6;2.7;1.9
53698;PMS7003;68408;53.952;27.612;2023-03-18T22:29:06;3.8;3.2;2.2
53698;PMS7003;68408;53.952;27.612;2023-03-18T22:33:42;4;2.9;2.5
53698;PMS7003;68408;53.952;27.612;2023-03-18T22:38:36;2.6;1.8;1.4
53698;PMS7003;68408;53.952;27.612;2023-03-18T22:44:20;4;2.8;2.2
53698;PMS7003;68408;53.952;27.612;2023-03-18T22:48:36;4;2.6;2.1
53698;PMS7003;68408;53.952;27.612;2023-03-18T22:54:02;3.9;3;2.3
53698;PMS7003;68408;53.952;27.612;2023-03-18T22:59:20;4.7;2.9;2.1
53698;PMS7003;68408;53.952;27.612;2023-03-18T23:03:30;4.1;2.5;1.9
53698;PMS7003;68408;53.952;27.612;2023-03-18T23:08:52;4.8;3.3;2.4
53698;PMS7003;68408;53.952;27.612;2023-03-18T23:13:48;4;2.8;2.3
53698;PMS7003;68408;53.952;27.612;2023-03-18T23:18:30;2.9;2.1;1.8
53698;PMS7003;68408;53.952;27.612;2023-03-18T23:24:07;3.1;2.2;1.8
53698;PMS7003;68408;53.952;27.612;2023-03-18T23:28:48;3.3;2.2;1.9
53698;PMS7003;68408;53.952;27.612;2023-03-18T23:34:20;2.8;2.3;1.9
53698;PMS7003;68408;53.952;27.612;2023-03-18T23:39:06;2.9;2.2;1.9
53698;PMS7003;68408;53.952;27.612;2023-03-18T23:43:36;3.1;2.1;1.7
53698;PMS7003;68408;53.952;27.612;2023-03-18T23:48:46;4.2;2.5;2
53698;PMS7003;68408;53.952;27.612;2023-03-18T23:54:20;3.5;2.4;1.8
53698;PMS7003;68408;53.952;27.612;2023-03-18T23:58:36;3.7;2.8;2.2
